Time;durP1;ratioP1;P1;durP2;ratioP2;P2;SDS_P1;SDS_P2;PMS_P1;PMS_P2;Temp;Humidity;BMP_temperature;BMP_pressure;BME280_temperature;BME280_humidity;BME280_pressure;Samples;Min_cycle;Max_cycle;Signal;HPM_P1;HPM_P2
2023/01/10 00:00:42;;;;;;;8.63;2.17;;;;;;;;;;6182395;23;20397;-70
2023/01/10 00:03:10;;;;;;;10.00;2.20;;;;;;;;;;6209199;23;20148;-70
2023/01/10 00:05:36;;;;;;;11.87;1.70;;;;;;;;;;6183188;23;20152;-70
2023/01/10 00:08:02;;;;;;;9.70;1.90;;;;;;;;;;6180461;23;20425;-70
2023/01/10 00:10:27;;;;;;;7.73;2.20;;;;;;;;;;6180670;23;20226;-71
2023/01/10 00:15:37;;;;;;;6.73;2.03;;;;;;;;;;6209195;23;20143;-70
2023/01/10 00:18:02;;;;;;;7.40;1.90;;;;;;;;;;6180997;23;20375;-70
2023/01/10 00:20:28;;;;;;;8.97;2.20;;;;;;;;;;6207843;23;20172;-71
2023/01/10 00:22:53;;;;;;;8.10;2.00;;;;;;;;;;6210344;23;20464;-70
2023/01/10 00:25:20;;;;;;;8.63;2.10;;;;;;;;;;6207917;23;20147;-70
2023/01/10 00:27:48;;;;;;;10.27;2.43;;;;;;;;;;6181750;23;20157;-70
2023/01/10 00:30:14;;;;;;;11.00;2.40;;;;;;;;;;6208802;23;20388;-70
2023/01/10 00:32:40;;;;;;;6.93;1.73;;;;;;;;;;6210469;23;20402;-70
2023/01/10 00:35:05;;;;;;;17.23;2.70;;;;;;;;;;6211416;23;20147;-70
2023/01/10 00:37:31;;;;;;;14.50;2.37;;;;;;;;;;6210117;23;20359;-70
2023/01/10 00:39:57;;;;;;;18.33;2.93;;;;;;;;;;6212183;23;20152;-70
2023/01/10 00:45:06;;;;;;;9.53;2.30;;;;;;;;;;6210907;23;20363;-70
2023/01/10 00:47:32;;;;;;;9.33;2.30;;;;;;;;;;6185406;23;20371;-70
2023/01/10 00:49:57;;;;;;;13.53;2.53;;;;;;;;;;6183658;23;20148;-71
2023/01/10 00:52:22;;;;;;;12.80;2.73;;;;;;;;;;6184958;23;20179;-68
2023/01/10 00:54:47;;;;;;;13.47;3.13;;;;;;;;;;6210732;23;20147;-68
2023/01/10 00:57:13;;;;;;;8.00;2.30;;;;;;;;;;6210682;23;20583;-69
2023/01/10 00:59:40;;;;;;;15.80;3.10;;;;;;;;;;6211709;23;20155;-68
2023/01/10 01:02:06;;;;;;;12.70;2.93;;;;;;;;;;6212083;23;20172;-69
2023/01/10 01:04:34;;;;;;;10.63;2.33;;;;;;;;;;6212014;23;20367;-68
2023/01/10 01:07:00;;;;;;;12.40;2.70;;;;;;;;;;6211893;23;20171;-68
2023/01/10 01:09:25;;;;;;;12.63;2.77;;;;;;;;;;6208039;23;20409;-69
2023/01/10 01:11:51;;;;;;;11.63;2.53;;;;;;;;;;6208844;23;20391;-69
2023/01/10 01:14:16;;;;;;;9.53;2.57;;;;;;;;;;6182423;23;20156;-68
2023/01/10 01:16:41;;;;;;;10.43;2.97;;;;;;;;;;6209199;23;20191;-70
2023/01/10 01:19:07;;;;;;;11.57;3.17;;;;;;;;;;6210097;23;20156;-69
2023/01/10 01:21:32;;;;;;;12.47;2.90;;;;;;;;;;6213325;23;20168;-71
2023/01/10 01:23:57;;;;;;;10.97;4.40;;;;;;;;;;6215320;23;20223;-69
2023/01/10 01:26:23;;;;;;;10.70;2.63;;;;;;;;;;6198389;23;20179;-70
2023/01/10 01:28:49;;;;;;;13.17;3.30;;;;;;;;;;6221838;23;20174;-70
2023/01/10 01:31:14;;;;;;;12.10;3.10;;;;;;;;;;6198570;23;20391;-70
2023/01/10 01:33:40;;;;;;;11.17;3.03;;;;;;;;;;6224516;23;20560;-70
2023/01/10 01:36:09;;;;;;;10.23;2.50;;;;;;;;;;6226720;23;20140;-70
2023/01/10 01:38:37;;;;;;;10.47;2.97;;;;;;;;;;6212490;23;20608;-69
2023/01/10 01:41:02;;;;;;;12.47;2.90;;;;;;;;;;6182492;23;20422;-69
2023/01/10 01:43:30;;;;;;;15.23;3.13;;;;;;;;;;6208902;23;20834;-70
2023/01/10 01:45:58;;;;;;;16.10;3.10;;;;;;;;;;6182695;23;20212;-71
2023/01/10 01:48:32;;;;;;;10.83;2.80;;;;;;;;;;6209509;23;20456;-70
2023/01/10 01:51:04;;;;;;;11.10;2.63;;;;;;;;;;6212175;23;20390;-69
2023/01/10 01:53:32;;;;;;;16.40;3.13;;;;;;;;;;6211813;23;20363;-70
2023/01/10 01:56:03;;;;;;;15.73;3.90;;;;;;;;;;6211918;23;20374;-69
2023/01/10 01:58:38;;;;;;;17.87;3.47;;;;;;;;;;6210872;23;20363;-70
2023/01/10 02:01:03;;;;;;;14.43;2.77;;;;;;;;;;6211892;23;20857;-70
2023/01/10 02:03:32;;;;;;;19.00;3.90;;;;;;;;;;6183567;23;20395;-69
2023/01/10 02:05:57;;;;;;;14.13;3.33;;;;;;;;;;6208666;23;20159;-69
2023/01/10 02:08:23;;;;;;;9.60;3.20;;;;;;;;;;6208457;23;20469;-70
2023/01/10 02:10:58;;;;;;;15.50;3.63;;;;;;;;;;6179506;23;20435;-69
2023/01/10 02:13:25;;;;;;;16.60;3.33;;;;;;;;;;6207273;23;20186;-69
2023/01/10 02:15:50;;;;;;;18.50;3.67;;;;;;;;;;6179093;23;20429;-70
2023/01/10 02:18:16;;;;;;;13.07;3.20;;;;;;;;;;6205749;23;21009;-69
2023/01/10 02:20:48;;;;;;;15.90;3.30;;;;;;;;;;6205709;23;20223;-70
2023/01/10 02:23:19;;;;;;;14.17;3.20;;;;;;;;;;6207214;23;20420;-70
2023/01/10 02:25:53;;;;;;;10.30;2.40;;;;;;;;;;6207985;23;20406;-70
2023/01/10 02:28:37;;;;;;;15.90;3.80;;;;;;;;;;6179195;23;20423;-70
2023/01/10 02:31:05;;;;;;;12.70;2.80;;;;;;;;;;6207720;23;20394;-69
2023/01/10 02:33:37;;;;;;;12.30;2.60;;;;;;;;;;6205445;23;20390;-69
2023/01/10 02:36:28;;;;;;;11.53;2.87;;;;;;;;;;6207352;23;20891;-69
2023/01/10 02:38:56;;;;;;;13.20;3.20;;;;;;;;;;6181538;23;20383;-70
2023/01/10 02:41:40;;;;;;;11.20;2.60;;;;;;;;;;6208424;23;20489;-69
2023/01/10 02:44:11;;;;;;;11.63;2.90;;;;;;;;;;6180682;23;20383;-70
2023/01/10 02:46:38;;;;;;;8.37;2.77;;;;;;;;;;6207608;23;20364;-69
2023/01/10 02:49:03;;;;;;;9.47;2.27;;;;;;;;;;6207179;23;20407;-70
2023/01/10 02:51:29;;;;;;;12.80;2.23;;;;;;;;;;6180074;23;20750;-70
2023/01/10 02:53:58;;;;;;;8.27;2.37;;;;;;;;;;6205742;23;20186;-70
2023/01/10 02:56:32;;;;;;;9.23;2.53;;;;;;;;;;6206537;23;20393;-69
2023/01/10 02:59:13;;;;;;;8.87;2.13;;;;;;;;;;6205587;23;20445;-70
2023/01/10 03:01:55;;;;;;;11.47;2.57;;;;;;;;;;6180750;23;20406;-69
2023/01/10 03:04:23;;;;;;;13.13;3.40;;;;;;;;;;6204098;23;20390;-70
2023/01/10 03:06:55;;;;;;;14.53;3.30;;;;;;;;;;6207620;23;20484;-69
2023/01/10 03:09:24;;;;;;;12.23;3.00;;;;;;;;;;6206685;23;20403;-69
2023/01/10 03:11:52;;;;;;;10.40;2.70;;;;;;;;;;6205971;23;20394;-69
2023/01/10 03:14:20;;;;;;;12.73;3.33;;;;;;;;;;6179228;23;20451;-69
2023/01/10 03:16:48;;;;;;;9.30;2.93;;;;;;;;;;6184266;23;20421;-70
2023/01/10 03:19:16;;;;;;;10.47;2.37;;;;;;;;;;6210154;23;20424;-69
2023/01/10 03:21:42;;;;;;;14.70;2.63;;;;;;;;;;6209570;23;20398;-69
2023/01/10 03:24:11;;;;;;;8.50;2.53;;;;;;;;;;6209458;23;20377;-69
2023/01/10 03:26:43;;;;;;;13.60;3.00;;;;;;;;;;6208471;23;20421;-69
2023/01/10 03:29:09;;;;;;;15.57;3.17;;;;;;;;;;6179181;23;20415;-69
2023/01/10 03:31:38;;;;;;;13.57;2.70;;;;;;;;;;6208626;23;20397;-69
2023/01/10 03:34:04;;;;;;;12.40;2.90;;;;;;;;;;6182593;23;20381;-69
2023/01/10 03:36:31;;;;;;;12.47;2.87;;;;;;;;;;6183465;23;20921;-69
2023/01/10 03:39:01;;;;;;;16.67;3.30;;;;;;;;;;6181333;23;20156;-70
2023/01/10 03:41:33;;;;;;;15.13;3.03;;;;;;;;;;6182033;23;20443;-69
2023/01/10 03:46:46;;;;;;;16.90;3.80;;;;;;;;;;6211093;23;20351;-69
2023/01/10 03:49:12;;;;;;;10.10;3.23;;;;;;;;;;6183760;23;20411;-69
2023/01/10 03:51:41;;;;;;;14.50;2.77;;;;;;;;;;6211820;23;20387;-69
2023/01/10 03:54:06;;;;;;;20.03;4.27;;;;;;;;;;6210640;23;20370;-69
2023/01/10 03:56:42;;;;;;;13.00;2.70;;;;;;;;;;6211189;23;20703;-69
2023/01/10 03:59:07;;;;;;;10.57;2.80;;;;;;;;;;6212218;23;20148;-69
2023/01/10 04:01:33;;;;;;;13.33;3.10;;;;;;;;;;6184526;23;20468;-69
2023/01/10 04:03:58;;;;;;;11.07;2.90;;;;;;;;;;6212348;23;20155;-69
2023/01/10 04:06:23;;;;;;;16.20;3.47;;;;;;;;;;6185033;23;20155;-70
2023/01/10 04:08:49;;;;;;;10.43;2.60;;;;;;;;;;6184463;23;20221;-69
2023/01/10 04:11:14;;;;;;;19.43;3.43;;;;;;;;;;6182532;23;20258;-69
2023/01/10 04:13:41;;;;;;;15.00;3.20;;;;;;;;;;6181622;23;20184;-69
2023/01/10 04:16:07;;;;;;;8.80;2.73;;;;;;;;;;6209734;23;20147;-69
2023/01/10 04:18:32;;;;;;;8.70;2.70;;;;;;;;;;6208992;23;20446;-69
2023/01/10 04:20:57;;;;;;;13.10;2.70;;;;;;;;;;6182129;23;20567;-69
2023/01/10 04:23:22;;;;;;;21.93;3.23;;;;;;;;;;6181300;23;20152;-69
2023/01/10 04:25:48;;;;;;;13.43;2.53;;;;;;;;;;6181950;23;20152;-70
2023/01/10 04:28:13;;;;;;;13.90;2.83;;;;;;;;;;6205765;23;20178;-69
2023/01/10 04:30:38;;;;;;;16.93;3.47;;;;;;;;;;6181073;23;20514;-68
2023/01/10 04:33:04;;;;;;;12.07;2.40;;;;;;;;;;6207632;23;20144;-69
2023/01/10 04:35:29;;;;;;;16.03;3.27;;;;;;;;;;6207747;23;20144;-69
2023/01/10 04:37:54;;;;;;;10.90;2.57;;;;;;;;;;6207392;23;20541;-69
2023/01/10 04:40:22;;;;;;;11.67;3.50;;;;;;;;;;6182262;23;20168;-69
2023/01/10 04:42:47;;;;;;;17.77;6.00;;;;;;;;;;6208537;23;20132;-70
2023/01/10 04:45:16;;;;;;;11.93;4.13;;;;;;;;;;6179355;23;20375;-69
2023/01/10 04:47:42;;;;;;;12.10;3.33;;;;;;;;;;6183471;23;20741;-69
2023/01/10 04:50:07;;;;;;;10.17;3.10;;;;;;;;;;6207056;23;20450;-69
2023/01/10 04:52:32;;;;;;;18.47;2.97;;;;;;;;;;6207672;23;20652;-69
2023/01/10 04:54:58;;;;;;;14.07;3.00;;;;;;;;;;6208518;23;20136;-69
2023/01/10 04:57:25;;;;;;;14.00;3.17;;;;;;;;;;6184360;23;20171;-69
2023/01/10 04:59:51;;;;;;;15.03;3.43;;;;;;;;;;6206876;23;20154;-69
2023/01/10 05:02:16;;;;;;;12.77;3.13;;;;;;;;;;6178178;23;20431;-69
2023/01/10 05:04:41;;;;;;;16.20;2.77;;;;;;;;;;6207475;23;20591;-71
2023/01/10 05:07:09;;;;;;;12.80;2.80;;;;;;;;;;6179484;23;20168;-69
2023/01/10 05:09:34;;;;;;;11.30;3.60;;;;;;;;;;6180287;23;20175;-69
2023/01/10 05:11:59;;;;;;;14.30;4.43;;;;;;;;;;6208179;23;20395;-69
2023/01/10 05:14:25;;;;;;;14.40;3.40;;;;;;;;;;6206093;23;20140;-70
2023/01/10 05:16:50;;;;;;;13.57;3.13;;;;;;;;;;6207639;23;20231;-69
2023/01/10 05:19:15;;;;;;;14.63;3.10;;;;;;;;;;6180768;23;20650;-69
2023/01/10 05:21:41;;;;;;;15.23;3.50;;;;;;;;;;6181574;23;20215;-69
2023/01/10 05:24:07;;;;;;;14.47;3.30;;;;;;;;;;6206688;23;20151;-69
2023/01/10 05:26:32;;;;;;;9.50;2.43;;;;;;;;;;6205918;23;20198;-69
2023/01/10 05:28:58;;;;;;;12.43;2.83;;;;;;;;;;6207780;23;20407;-69
2023/01/10 05:31:23;;;;;;;17.93;3.30;;;;;;;;;;6208072;23;20159;-69
2023/01/10 05:33:50;;;;;;;14.40;2.70;;;;;;;;;;6181386;23;20148;-69
2023/01/10 05:36:16;;;;;;;8.63;2.40;;;;;;;;;;6209096;23;20148;-69
2023/01/10 05:38:42;;;;;;;14.07;2.87;;;;;;;;;;6183628;23;20367;-69
2023/01/10 05:41:07;;;;;;;10.93;3.63;;;;;;;;;;6209464;23;20395;-70
2023/01/10 05:43:32;;;;;;;7.97;2.80;;;;;;;;;;6208925;23;20210;-69
2023/01/10 05:45:57;;;;;;;13.73;3.63;;;;;;;;;;6182175;23;20148;-69
2023/01/10 05:48:23;;;;;;;12.37;3.80;;;;;;;;;;6208950;23;20175;-69
2023/01/10 05:50:49;;;;;;;14.63;3.13;;;;;;;;;;6209407;23;20164;-69
2023/01/10 05:53:14;;;;;;;19.00;3.33;;;;;;;;;;6183840;23;20159;-69
2023/01/10 05:55:39;;;;;;;12.30;3.03;;;;;;;;;;6211616;23;20363;-69
2023/01/10 05:58:05;;;;;;;16.70;4.33;;;;;;;;;;6184584;23;20596;-69
2023/01/10 06:00:30;;;;;;;10.40;3.07;;;;;;;;;;6209587;23;20168;-69
2023/01/10 06:02:55;;;;;;;17.23;3.80;;;;;;;;;;6211703;23;20144;-70
2023/01/10 06:05:21;;;;;;;14.83;3.20;;;;;;;;;;6209229;23;20167;-69
2023/01/10 06:07:46;;;;;;;13.53;3.27;;;;;;;;;;6211014;23;20243;-70
2023/01/10 06:10:11;;;;;;;10.03;3.10;;;;;;;;;;6181824;23;20222;-70
2023/01/10 06:12:40;;;;;;;15.30;3.50;;;;;;;;;;6182625;23;20158;-69
2023/01/10 06:15:06;;;;;;;13.67;4.00;;;;;;;;;;6208828;23;20171;-69
2023/01/10 06:17:31;;;;;;;11.63;2.80;;;;;;;;;;6207181;23;20434;-70
2023/01/10 06:19:56;;;;;;;12.70;3.53;;;;;;;;;;6182220;23;20159;-69
2023/01/10 06:22:25;;;;;;;21.27;4.40;;;;;;;;;;6182469;23;20187;-70
2023/01/10 06:24:50;;;;;;;13.47;2.90;;;;;;;;;;6182054;23;20187;-70
2023/01/10 06:27:16;;;;;;;10.10;2.37;;;;;;;;;;6208650;23;20375;-70
2023/01/10 06:29:41;;;;;;;11.37;3.20;;;;;;;;;;6209935;23;20221;-70
2023/01/10 06:32:06;;;;;;;17.70;3.80;;;;;;;;;;6209590;23;20510;-70
2023/01/10 06:34:31;;;;;;;10.90;2.80;;;;;;;;;;6208011;23;20144;-70
2023/01/10 06:36:57;;;;;;;11.17;2.67;;;;;;;;;;6204885;23;20179;-69
2023/01/10 06:39:25;;;;;;;6.37;2.10;;;;;;;;;;6205294;23;20148;-71
2023/01/10 06:41:53;;;;;;;13.37;2.60;;;;;;;;;;6205854;23;20245;-68
2023/01/10 06:44:21;;;;;;;9.10;2.70;;;;;;;;;;6205381;23;20699;-69
2023/01/10 06:46:46;;;;;;;13.47;2.53;;;;;;;;;;6207156;23;20378;-70
2023/01/10 06:49:12;;;;;;;10.03;2.33;;;;;;;;;;6208163;23;20434;-71
2023/01/10 06:51:37;;;;;;;12.10;3.87;;;;;;;;;;6208127;23;20160;-70
2023/01/10 06:54:02;;;;;;;16.33;3.00;;;;;;;;;;6185686;23;20215;-70
2023/01/10 06:56:28;;;;;;;11.07;3.53;;;;;;;;;;6186470;23;20171;-70
2023/01/10 06:58:53;;;;;;;11.37;3.53;;;;;;;;;;6182529;23;20155;-71
2023/01/10 07:01:20;;;;;;;11.30;3.10;;;;;;;;;;6182092;23;20175;-70
2023/01/10 07:03:45;;;;;;;11.27;3.30;;;;;;;;;;6182371;23;20183;-70
2023/01/10 07:06:10;;;;;;;13.93;3.37;;;;;;;;;;6209837;23;20429;-70
2023/01/10 07:08:36;;;;;;;11.20;3.90;;;;;;;;;;6208207;23;20229;-70
2023/01/10 07:11:02;;;;;;;11.13;3.90;;;;;;;;;;6207526;23;20168;-70
2023/01/10 07:13:27;;;;;;;15.87;4.40;;;;;;;;;;6207439;23;20454;-70
2023/01/10 07:15:59;;;;;;;10.43;3.57;;;;;;;;;;6210259;23;20163;-71
2023/01/10 07:18:25;;;;;;;13.20;3.60;;;;;;;;;;6207776;23;20170;-71
2023/01/10 07:20:50;;;;;;;10.73;4.07;;;;;;;;;;6209238;23;20788;-70
2023/01/10 07:23:15;;;;;;;16.17;4.10;;;;;;;;;;6182742;23;20159;-70
2023/01/10 07:25:41;;;;;;;12.20;3.80;;;;;;;;;;6206904;23;20148;-70
2023/01/10 07:28:06;;;;;;;17.77;4.27;;;;;;;;;;6180786;23;20270;-70
2023/01/10 07:30:31;;;;;;;12.07;5.00;;;;;;;;;;6179880;23;20175;-70
2023/01/10 07:32:57;;;;;;;13.13;4.10;;;;;;;;;;6206075;23;20495;-70
2023/01/10 07:35:23;;;;;;;11.33;3.90;;;;;;;;;;6209612;23;20144;-70
2023/01/10 07:37:48;;;;;;;14.10;3.97;;;;;;;;;;6209147;23;20198;-70
2023/01/10 07:40:13;;;;;;;15.87;4.83;;;;;;;;;;6212631;23;20414;-70
2023/01/10 07:42:39;;;;;;;10.13;3.20;;;;;;;;;;6209404;23;20128;-70
2023/01/10 07:45:06;;;;;;;15.17;3.80;;;;;;;;;;6183963;23;20603;-71
2023/01/10 07:47:31;;;;;;;10.83;3.37;;;;;;;;;;6182356;23;20148;-70
2023/01/10 07:49:56;;;;;;;15.80;4.00;;;;;;;;;;6184944;23;20565;-70
2023/01/10 07:52:22;;;;;;;13.60;3.80;;;;;;;;;;6181756;23;20151;-70
2023/01/10 07:54:47;;;;;;;13.27;2.93;;;;;;;;;;6182101;23;20596;-70
2023/01/10 07:57:13;;;;;;;13.90;3.57;;;;;;;;;;6209860;23;20151;-70
2023/01/10 07:59:38;;;;;;;10.73;3.20;;;;;;;;;;6182931;23;20205;-70
2023/01/10 08:02:03;;;;;;;11.00;2.97;;;;;;;;;;6182105;23;20406;-70
2023/01/10 08:04:29;;;;;;;14.50;3.00;;;;;;;;;;6210522;23;20140;-70
2023/01/10 08:06:54;;;;;;;15.10;3.53;;;;;;;;;;6210182;23;20152;-70
2023/01/10 08:09:19;;;;;;;12.87;2.90;;;;;;;;;;6210347;23;20246;-70
2023/01/10 08:11:44;;;;;;;9.67;2.47;;;;;;;;;;6183328;23;20195;-70
2023/01/10 08:14:12;;;;;;;8.43;2.50;;;;;;;;;;6210792;23;20151;-70
2023/01/10 08:16:38;;;;;;;10.07;2.47;;;;;;;;;;6207299;23;20361;-70
2023/01/10 08:19:03;;;;;;;8.70;3.23;;;;;;;;;;6208237;23;20768;-71
2023/01/10 08:21:28;;;;;;;11.50;2.60;;;;;;;;;;6183744;23;20226;-69
2023/01/10 08:23:53;;;;;;;6.50;2.23;;;;;;;;;;6183702;23;20612;-70
2023/01/10 08:26:19;;;;;;;10.83;2.40;;;;;;;;;;6210443;23;20167;-70
2023/01/10 08:28:46;;;;;;;14.43;3.63;;;;;;;;;;6182640;23;20207;-70
2023/01/10 08:31:12;;;;;;;9.17;2.50;;;;;;;;;;6183487;23;20175;-70
2023/01/10 08:33:38;;;;;;;13.40;3.00;;;;;;;;;;6184114;23;21113;-70
2023/01/10 08:36:03;;;;;;;7.00;2.63;;;;;;;;;;6212170;23;20152;-70
2023/01/10 08:38:28;;;;;;;10.10;3.23;;;;;;;;;;6184484;23;20159;-70
2023/01/10 08:40:57;;;;;;;13.53;3.60;;;;;;;;;;6210463;23;20226;-70
2023/01/10 08:43:22;;;;;;;21.90;4.00;;;;;;;;;;6182473;23;20264;-70
2023/01/10 08:45:48;;;;;;;14.57;3.50;;;;;;;;;;6209094;23;20873;-70
2023/01/10 08:48:14;;;;;;;14.13;3.63;;;;;;;;;;6209507;23;20254;-70
2023/01/10 08:50:39;;;;;;;9.10;3.40;;;;;;;;;;6182687;23;20250;-71
2023/01/10 08:53:05;;;;;;;14.30;3.40;;;;;;;;;;6210524;23;20826;-70
2023/01/10 08:55:30;;;;;;;15.60;3.97;;;;;;;;;;6210184;23;20151;-70
2023/01/10 08:57:57;;;;;;;17.97;4.00;;;;;;;;;;6210854;23;20279;-70
2023/01/10 09:00:23;;;;;;;12.70;4.50;;;;;;;;;;6182973;23;20172;-70
2023/01/10 09:02:48;;;;;;;20.77;4.37;;;;;;;;;;6209695;23;20371;-70
2023/01/10 09:05:13;;;;;;;14.80;4.70;;;;;;;;;;6210402;23;20235;-70
2023/01/10 09:07:41;;;;;;;11.90;4.00;;;;;;;;;;6207564;23;20151;-70
2023/01/10 09:12:55;;;;;;;18.93;4.37;;;;;;;;;;6239277;23;20736;-70
2023/01/10 09:15:22;;;;;;;15.40;6.23;;;;;;;;;;6212150;23;20367;-70
2023/01/10 09:17:48;;;;;;;16.53;4.77;;;;;;;;;;6212792;23;20366;-70
2023/01/10 09:20:14;;;;;;;15.43;4.43;;;;;;;;;;6208953;23;20470;-70
2023/01/10 09:22:39;;;;;;;17.03;5.13;;;;;;;;;;6184083;23;20425;-70
2023/01/10 09:25:05;;;;;;;14.80;4.57;;;;;;;;;;6209304;23;20989;-70
2023/01/10 09:27:31;;;;;;;24.10;5.40;;;;;;;;;;6183062;23;20234;-70
2023/01/10 09:29:57;;;;;;;17.33;4.30;;;;;;;;;;6209951;23;20536;-70
2023/01/10 09:32:22;;;;;;;24.83;5.63;;;;;;;;;;6181484;23;20381;-70
2023/01/10 09:34:47;;;;;;;18.97;4.50;;;;;;;;;;6183911;23;20158;-70
2023/01/10 09:37:12;;;;;;;16.33;4.67;;;;;;;;;;6209561;23;20144;-71
2023/01/10 09:39:38;;;;;;;16.37;3.93;;;;;;;;;;6181585;23;20152;-70
2023/01/10 09:42:06;;;;;;;21.17;5.20;;;;;;;;;;6208385;23;20172;-70
2023/01/10 09:44:50;;;;;;;21.17;5.00;;;;;;;;;;6183712;23;20186;-71
2023/01/10 09:47:42;;;;;;;22.70;5.87;;;;;;;;;;6207766;23;20402;-70
2023/01/10 09:50:20;;;;;;;18.97;4.57;;;;;;;;;;6185818;23;20426;-70
2023/01/10 09:52:48;;;;;;;18.57;5.20;;;;;;;;;;6183442;23;20862;-70
2023/01/10 09:55:23;;;;;;;21.43;5.53;;;;;;;;;;6210098;23;20367;-70
2023/01/10 09:57:49;;;;;;;20.00;4.63;;;;;;;;;;6208171;23;20826;-70
2023/01/10 10:00:19;;;;;;;23.20;4.37;;;;;;;;;;6178950;23;20399;-72
2023/01/10 10:02:47;;;;;;;17.47;5.13;;;;;;;;;;6207971;23;20363;-71
2023/01/10 10:05:17;;;;;;;15.60;4.73;;;;;;;;;;6209618;23;20363;-71
2023/01/10 10:07:42;;;;;;;18.83;4.50;;;;;;;;;;6181522;23;21090;-70
2023/01/10 10:12:41;;;;;;;23.73;4.90;;;;;;;;;;6232859;23;20182;-71
2023/01/10 10:15:06;;;;;;;17.47;4.57;;;;;;;;;;6234808;23;20709;-71
2023/01/10 10:17:40;;;;;;;18.40;4.30;;;;;;;;;;6238164;23;20363;-70
2023/01/10 10:20:14;;;;;;;19.73;5.53;;;;;;;;;;6236593;23;20185;-70
2023/01/10 10:22:48;;;;;;;17.77;3.60;;;;;;;;;;6207503;23;20394;-70
2023/01/10 10:25:19;;;;;;;17.53;4.00;;;;;;;;;;6207331;23;20796;-71
2023/01/10 10:27:54;;;;;;;17.43;4.27;;;;;;;;;;6182483;23;20383;-71
2023/01/10 10:30:32;;;;;;;12.27;3.57;;;;;;;;;;6180853;23;20418;-71
2023/01/10 10:33:12;;;;;;;11.83;2.97;;;;;;;;;;6210890;23;20355;-70
2023/01/10 10:35:39;;;;;;;21.00;4.43;;;;;;;;;;6184054;23;20737;-71
2023/01/10 10:38:10;;;;;;;15.93;4.17;;;;;;;;;;6182632;23;20730;-70
2023/01/10 10:40:37;;;;;;;13.80;3.90;;;;;;;;;;6209766;23;20382;-71
2023/01/10 10:43:12;;;;;;;11.47;2.80;;;;;;;;;;6184387;23;20382;-71
2023/01/10 10:45:41;;;;;;;11.43;4.00;;;;;;;;;;6210809;23;20382;-70
2023/01/10 10:48:35;;;;;;;13.50;3.97;;;;;;;;;;6210451;23;20367;-71
2023/01/10 10:51:01;;;;;;;16.77;4.03;;;;;;;;;;6197270;23;20790;-70
2023/01/10 10:53:26;;;;;;;17.23;3.97;;;;;;;;;;6210711;23;20367;-70
2023/01/10 10:55:52;;;;;;;17.10;3.97;;;;;;;;;;6212124;23;20157;-70
2023/01/10 10:58:17;;;;;;;13.20;3.73;;;;;;;;;;6208918;23;20151;-70
2023/01/10 11:00:43;;;;;;;15.90;4.07;;;;;;;;;;6210305;23;20175;-70
2023/01/10 11:03:11;;;;;;;19.43;4.80;;;;;;;;;;6182597;23;20156;-71
2023/01/10 11:05:39;;;;;;;18.20;4.50;;;;;;;;;;6182525;23;20844;-70
2023/01/10 11:08:12;;;;;;;18.23;5.27;;;;;;;;;;6209532;23;20374;-70
2023/01/10 11:10:38;;;;;;;17.13;3.67;;;;;;;;;;6180354;23;20422;-70
2023/01/10 11:13:23;;;;;;;14.77;4.00;;;;;;;;;;6184457;23;20382;-70
2023/01/10 11:15:49;;;;;;;23.97;5.07;;;;;;;;;;6208243;23;20378;-71
2023/01/10 11:18:22;;;;;;;12.47;3.60;;;;;;;;;;6211847;23;20470;-70
2023/01/10 11:21:06;;;;;;;15.50;4.30;;;;;;;;;;6212392;23;20595;-71
2023/01/10 11:23:52;;;;;;;18.97;3.90;;;;;;;;;;6210601;23;20371;-70
2023/01/10 11:26:20;;;;;;;18.17;6.03;;;;;;;;;;6211532;23;20375;-72
2023/01/10 11:28:45;;;;;;;21.17;5.33;;;;;;;;;;6182414;23;20629;-71
2023/01/10 11:31:11;;;;;;;18.53;5.10;;;;;;;;;;6210183;23;20774;-70
2023/01/10 11:33:38;;;;;;;19.20;4.20;;;;;;;;;;6211105;23;20163;-70
2023/01/10 11:36:05;;;;;;;20.70;4.50;;;;;;;;;;6209627;23;20148;-71
2023/01/10 11:38:30;;;;;;;16.53;3.90;;;;;;;;;;6207313;23;20371;-71
2023/01/10 11:41:07;;;;;;;16.17;4.17;;;;;;;;;;6213072;23;20391;-71
2023/01/10 11:43:35;;;;;;;16.67;4.00;;;;;;;;;;6207834;23;20148;-72
2023/01/10 11:46:02;;;;;;;19.67;4.90;;;;;;;;;;6210534;23;20452;-70
2023/01/10 11:48:32;;;;;;;15.20;4.50;;;;;;;;;;6181664;23;20426;-70
2023/01/10 11:50:58;;;;;;;16.77;4.40;;;;;;;;;;6183021;23;20410;-70
2023/01/10 11:53:34;;;;;;;16.33;4.27;;;;;;;;;;6210380;23;20370;-70
2023/01/10 11:56:00;;;;;;;21.13;4.40;;;;;;;;;;6183289;23;20151;-70
2023/01/10 11:58:29;;;;;;;22.47;4.40;;;;;;;;;;6211276;23;20811;-70
2023/01/10 12:00:54;;;;;;;25.73;5.00;;;;;;;;;;6209189;23;20394;-70
2023/01/10 12:03:31;;;;;;;15.80;3.70;;;;;;;;;;6182794;23;20383;-70
2023/01/10 12:06:07;;;;;;;27.20;5.20;;;;;;;;;;6207627;23;20148;-70
2023/01/10 12:08:37;;;;;;;17.20;4.90;;;;;;;;;;6181914;23;20925;-69
2023/01/10 12:11:11;;;;;;;20.50;4.90;;;;;;;;;;6207736;23;20402;-71
2023/01/10 12:13:44;;;;;;;18.03;4.97;;;;;;;;;;6209492;23;20399;-70
2023/01/10 12:16:24;;;;;;;19.53;4.97;;;;;;;;;;6209983;23;20377;-70
2023/01/10 12:18:53;;;;;;;18.40;5.33;;;;;;;;;;6209243;23;20381;-70
2023/01/10 12:21:38;;;;;;;19.60;5.87;;;;;;;;;;6183380;23;20457;-70
2023/01/10 12:24:10;;;;;;;15.80;5.10;;;;;;;;;;6205632;23;20414;-70
2023/01/10 12:26:35;;;;;;;24.00;5.90;;;;;;;;;;6209858;23;20366;-70
2023/01/10 12:29:27;;;;;;;13.27;4.70;;;;;;;;;;6209938;23;20493;-70
2023/01/10 12:31:53;;;;;;;21.13;6.10;;;;;;;;;;6205940;23;20172;-70
2023/01/10 12:34:21;;;;;;;26.07;6.53;;;;;;;;;;6209879;23;20372;-70
2023/01/10 12:37:03;;;;;;;20.17;7.20;;;;;;;;;;6210276;23;20367;-70
2023/01/10 12:39:33;;;;;;;18.83;6.70;;;;;;;;;;6209848;23;20361;-70
2023/01/10 12:44:52;;;;;;;23.57;8.53;;;;;;;;;;6208245;23;20443;-70
2023/01/10 12:47:20;;;;;;;20.73;6.60;;;;;;;;;;6181842;23;20408;-71
2023/01/10 12:49:51;;;;;;;18.37;7.47;;;;;;;;;;6182632;23;20418;-70
2023/01/10 12:52:21;;;;;;;27.63;8.47;;;;;;;;;;6183105;23;20395;-71
2023/01/10 12:54:47;;;;;;;28.00;7.27;;;;;;;;;;6183522;23;21132;-70
2023/01/10 12:57:42;;;;;;;23.23;7.40;;;;;;;;;;6184127;23;20375;-70
2023/01/10 13:02:45;;;;;;;21.33;6.60;;;;;;;;;;6240139;23;20756;-70
2023/01/10 13:05:15;;;;;;;27.73;6.50;;;;;;;;;;6240215;23;20354;-70
2023/01/10 13:07:40;;;;;;;24.03;6.70;;;;;;;;;;6239326;23;20362;-70
2023/01/10 13:10:06;;;;;;;23.73;6.43;;;;;;;;;;6236360;23;20410;-71
2023/01/10 13:12:37;;;;;;;22.80;5.90;;;;;;;;;;6209851;23;20199;-71
2023/01/10 13:15:05;;;;;;;21.33;6.27;;;;;;;;;;6209449;23;20156;-71
2023/01/10 13:17:31;;;;;;;23.30;6.00;;;;;;;;;;6208543;23;20363;-69
2023/01/10 13:20:15;;;;;;;33.80;6.87;;;;;;;;;;6181402;23;20379;-70
2023/01/10 13:22:41;;;;;;;28.53;7.50;;;;;;;;;;6205989;23;20235;-70
2023/01/10 13:25:17;;;;;;;21.77;5.70;;;;;;;;;;6210564;23;20426;-70
2023/01/10 13:27:43;;;;;;;21.13;5.60;;;;;;;;;;6208695;23;20438;-70
2023/01/10 13:32:39;;;;;;;32.00;7.03;;;;;;;;;;6241393;23;20908;-70
2023/01/10 13:35:16;;;;;;;15.13;5.47;;;;;;;;;;6213528;23;20370;-70
2023/01/10 13:37:48;;;;;;;17.37;6.20;;;;;;;;;;6240410;23;20363;-71
2023/01/10 13:40:20;;;;;;;24.50;6.83;;;;;;;;;;6235764;23;20441;-70
2023/01/10 13:45:30;;;;;;;25.77;5.33;;;;;;;;;;6208136;23;20355;-70
2023/01/10 13:47:55;;;;;;;18.93;4.90;;;;;;;;;;6181576;23;20375;-71
2023/01/10 13:50:37;;;;;;;21.67;5.57;;;;;;;;;;6182274;23;20525;-70
2023/01/10 13:53:11;;;;;;;19.57;4.80;;;;;;;;;;6183539;23;20148;-70
2023/01/10 13:55:42;;;;;;;22.23;4.90;;;;;;;;;;6208505;23;20350;-70
2023/01/10 13:58:16;;;;;;;23.33;5.23;;;;;;;;;;6207947;23;20421;-70
2023/01/10 14:03:43;;;;;;;21.60;5.03;;;;;;;;;;6208894;23;20397;-70
2023/01/10 14:06:20;;;;;;;32.23;6.90;;;;;;;;;;6205466;23;20367;-70
2023/01/10 14:08:50;;;;;;;18.50;5.30;;;;;;;;;;6210156;23;20884;-70
2023/01/10 14:11:16;;;;;;;24.23;5.70;;;;;;;;;;6210686;23;20387;-70
2023/01/10 14:13:46;;;;;;;23.87;5.10;;;;;;;;;;6182283;23;20383;-70
2023/01/10 14:16:30;;;;;;;25.10;6.60;;;;;;;;;;6210087;23;20144;-71
2023/01/10 14:18:58;;;;;;;17.97;5.50;;;;;;;;;;6210316;23;20366;-72
2023/01/10 14:21:24;;;;;;;22.70;5.80;;;;;;;;;;6179944;23;20399;-71
2023/01/10 14:23:51;;;;;;;28.47;6.30;;;;;;;;;;6207096;23;20400;-71
2023/01/10 14:26:22;;;;;;;23.33;5.70;;;;;;;;;;6178625;23;20371;-71
2023/01/10 14:28:48;;;;;;;42.60;6.87;;;;;;;;;;6204179;23;20942;-70
2023/01/10 14:31:24;;;;;;;24.87;4.50;;;;;;;;;;6205315;23;20497;-70
2023/01/10 14:33:50;;;;;;;24.70;5.53;;;;;;;;;;6204424;23;20390;-71
2023/01/10 14:36:32;;;;;;;21.90;6.30;;;;;;;;;;6179254;23;20406;-72
2023/01/10 14:38:59;;;;;;;24.07;5.60;;;;;;;;;;6208820;23;20438;-72
2023/01/10 14:41:29;;;;;;;25.03;6.40;;;;;;;;;;6208879;23;20474;-71
2023/01/10 14:44:13;;;;;;;22.80;5.90;;;;;;;;;;6210612;23;20446;-71
2023/01/10 14:46:46;;;;;;;17.23;4.63;;;;;;;;;;6208208;23;20371;-71
2023/01/10 14:49:27;;;;;;;21.07;6.60;;;;;;;;;;6206386;23;20433;-71
2023/01/10 14:52:09;;;;;;;18.60;5.43;;;;;;;;;;6210077;23;20379;-71
2023/01/10 14:54:34;;;;;;;24.40;4.90;;;;;;;;;;6208109;23;20806;-72
2023/01/10 14:57:00;;;;;;;21.10;4.63;;;;;;;;;;6209588;23;20370;-72
2023/01/10 14:59:25;;;;;;;28.83;5.37;;;;;;;;;;6178181;23;20159;-72
2023/01/10 15:01:52;;;;;;;24.67;4.93;;;;;;;;;;6209562;23;20176;-72
2023/01/10 15:04:19;;;;;;;15.60;4.40;;;;;;;;;;6207043;23;20243;-73